createdAt,value
2023-02-15T00:00:58.638Z,31.7
2023-02-15T00:07:04.075Z,31.6
2023-02-15T00:13:09.762Z,31.6
2023-02-15T00:19:15.953Z,31.6
2023-02-15T00:25:21.442Z,31.6
2023-02-15T00:31:27.553Z,31.5
2023-02-15T00:37:33.946Z,31.5
2023-02-15T00:43:40.201Z,31.5
2023-02-15T00:49:46.074Z,31.4
2023-02-15T00:55:52.264Z,31.4
2023-02-15T01:01:57.838Z,31.3
2023-02-15T01:08:03.623Z,31.3
2023-02-15T01:14:10.042Z,31.2
2023-02-15T01:20:15.994Z,31.2
2023-02-15T01:26:21.974Z,31.1
2023-02-15T01:32:27.950Z,31.1
2023-02-15T01:38:33.724Z,31
2023-02-15T01:44:40.150Z,30.9
2023-02-15T01:50:46.325Z,30.9
2023-02-15T01:56:51.874Z,30.9
2023-02-15T02:02:57.711Z,30.8
2023-02-15T02:09:04.044Z,30.8
2023-02-15T02:15:09.465Z,30.8
2023-02-15T02:21:15.599Z,30.7
2023-02-15T02:27:21.586Z,30.6
2023-02-15T02:33:27.761Z,30.6
2023-02-15T02:39:33.764Z,30.6
2023-02-15T02:45:39.518Z,30.5
2023-02-15T02:51:45.156Z,30.5
2023-02-15T02:57:50.979Z,30.4
2023-02-15T03:03:56.642Z,30.4
2023-02-15T03:10:02.434Z,30.4
2023-02-15T03:16:08.426Z,30.4
2023-02-15T03:22:14.400Z,30.4
2023-02-15T03:28:20.567Z,30.4
2023-02-15T03:34:26.765Z,30.4
2023-02-15T03:40:32.747Z,30.3
2023-02-15T03:46:38.738Z,30.3
2023-02-15T03:52:44.823Z,30.3
2023-02-15T03:58:50.881Z,30.3
2023-02-15T04:04:57.078Z,30.3
2023-02-15T04:11:02.847Z,30.3
2023-02-15T04:17:09.639Z,30.3
2023-02-15T04:23:15.843Z,30.2
2023-02-15T04:29:21.599Z,30.2
2023-02-15T04:35:27.804Z,30.2
2023-02-15T04:41:33.579Z,30.2
2023-02-15T04:47:39.784Z,30.2
2023-02-15T04:53:45.822Z,30.2
2023-02-15T04:59:51.714Z,30.1
2023-02-15T05:05:57.706Z,30.2
2023-02-15T05:12:03.873Z,30.2
2023-02-15T05:18:10.090Z,30.1
2023-02-15T05:24:15.907Z,30.1
2023-02-15T05:30:22.183Z,30.1
2023-02-15T05:36:28.640Z,30.2
2023-02-15T05:42:34.881Z,30.1
2023-02-15T05:48:40.880Z,30
2023-02-15T05:54:47.218Z,30
2023-02-15T06:00:53.360Z,29.9
2023-02-15T06:06:59.566Z,29.9
2023-02-15T06:13:05.571Z,29.9
2023-02-15T06:19:11.314Z,29.9
2023-02-15T06:25:17.531Z,29.9
2023-02-15T06:31:23.886Z,29.9
2023-02-15T06:37:29.677Z,29.9
2023-02-15T06:43:35.870Z,29.9
2023-02-15T06:49:42.037Z,29.9
2023-02-15T06:55:48.032Z,29.9
2023-02-15T07:01:54.281Z,29.8
2023-02-15T07:08:00.677Z,29.8
2023-02-15T07:14:06.595Z,29.7
2023-02-15T07:20:13.197Z,29.7
2023-02-15T07:26:18.561Z,29.7
2023-02-15T07:32:24.383Z,29.7
2023-02-15T07:38:30.418Z,29.7
2023-02-15T07:44:36.264Z,29.7
2023-02-15T07:50:42.681Z,29.7
2023-02-15T07:56:49.066Z,29.6
2023-02-15T08:02:54.961Z,29.6
2023-02-15T08:09:01.227Z,29.6
2023-02-15T08:15:07.828Z,29.7
2023-02-15T08:21:14.072Z,29.5
2023-02-15T08:27:19.794Z,29.6
2023-02-15T08:33:26.279Z,29.6
2023-02-15T08:39:32.233Z,29.6
2023-02-15T08:45:38.786Z,29.6
2023-02-15T08:51:45.043Z,29.7
2023-02-15T08:57:51.320Z,29.7
2023-02-15T09:03:57.416Z,29.8
2023-02-15T09:10:03.408Z,29.8
2023-02-15T09:16:09.286Z,29.8
2023-02-15T09:22:15.361Z,30.1
2023-02-15T09:28:21.238Z,30.2
2023-02-15T09:34:27.629Z,30.2
2023-02-15T09:40:33.600Z,30.1
2023-02-15T09:46:39.869Z,30.2
2023-02-15T09:52:46.189Z,30.4
2023-02-15T09:58:52.192Z,30.4
2023-02-15T10:04:58.433Z,30.6
2023-02-15T10:11:05.222Z,30.6
2023-02-15T10:17:11.550Z,30.7
2023-02-15T10:23:20.002Z,30.8
2023-02-15T10:29:25.673Z,30.9
2023-02-15T10:35:31.047Z,30.9
2023-02-15T10:41:36.922Z,31
2023-02-15T10:47:43.121Z,31.1
2023-02-15T10:53:49.072Z,31.1
2023-02-15T10:59:55.474Z,31.2
2023-02-15T11:06:01.035Z,31.2
2023-02-15T11:12:06.854Z,31.2
2023-02-15T11:18:12.868Z,31.3
2023-02-15T11:24:18.760Z,31.3
2023-02-15T11:30:25.032Z,31.3
2023-02-15T11:36:30.960Z,31.3
2023-02-15T11:42:37.147Z,31.4
2023-02-15T11:48:43.133Z,31.4
2023-02-15T11:54:49.319Z,31.4
2023-02-15T12:00:54.590Z,31.4
2023-02-15T12:07:05.755Z,31.4
2023-02-15T12:13:11.956Z,31.4
2023-02-15T12:19:17.520Z,31.3
2023-02-15T12:25:23.316Z,31.3
2023-02-15T12:31:30.002Z,31.3
2023-02-15T12:37:36.074Z,31.3
2023-02-15T12:43:42.068Z,31.3
2023-02-15T12:49:51.749Z,31.2
2023-02-15T12:55:57.635Z,31.3
2023-02-15T13:02:03.539Z,31.3
2023-02-15T13:08:09.477Z,31.3
2023-02-15T13:14:15.658Z,31.3
2023-02-15T13:20:21.844Z,31.3
2023-02-15T13:26:28.046Z,31.3
2023-02-15T13:32:33.609Z,31.3
2023-02-15T13:38:39.374Z,31.4
2023-02-15T13:44:45.152Z,31.3
2023-02-15T13:50:51.156Z,31.4
2023-02-15T13:56:56.732Z,31.4
2023-02-15T14:03:02.904Z,31.4
2023-02-15T14:09:08.882Z,31.4
2023-02-15T14:15:14.869Z,31.4
2023-02-15T14:21:21.032Z,31.2
2023-02-15T14:27:27.239Z,31.3
2023-02-15T14:33:37.845Z,31.3
2023-02-15T14:39:43.992Z,31.3
2023-02-15T14:45:49.899Z,31.3
2023-02-15T14:51:55.882Z,31.4
2023-02-15T14:58:02.278Z,31.4
2023-02-15T15:04:08.181Z,31.6
2023-02-15T15:10:14.004Z,31.6
2023-02-15T15:16:20.270Z,31.6
2023-02-15T15:22:25.665Z,31.7
2023-02-15T15:28:31.951Z,31.8
2023-02-15T15:34:38.577Z,31.9
2023-02-15T15:40:44.396Z,32
2023-02-15T15:46:50.594Z,32.1
2023-02-15T15:52:56.520Z,32.2
2023-02-15T15:59:02.488Z,32.2
2023-02-15T16:05:08.687Z,32.1
2023-02-15T16:11:14.632Z,32.2
2023-02-15T16:17:20.633Z,32.2
2023-02-15T16:23:26.188Z,32.4
2023-02-15T16:29:32.205Z,32.3
2023-02-15T16:35:37.949Z,32.3
2023-02-15T16:41:44.351Z,32.4
2023-02-15T16:47:50.316Z,32.4
2023-02-15T16:53:56.506Z,32.5
2023-02-15T17:00:02.520Z,32.7
2023-02-15T17:06:08.473Z,32.6
2023-02-15T17:12:14.458Z,32.5
2023-02-15T17:18:20.458Z,32.7
2023-02-15T17:24:26.836Z,32.8
2023-02-15T17:30:33.781Z,32.9
2023-02-15T17:36:40.037Z,33
2023-02-15T17:42:45.998Z,33
2023-02-15T17:48:52.398Z,33
2023-02-15T17:54:58.028Z,32.9
2023-02-15T18:01:05.424Z,32.9
2023-02-15T18:07:11.768Z,33.1
2023-02-15T18:13:17.970Z,33.2
2023-02-15T18:19:23.747Z,33
2023-02-15T18:25:29.931Z,33
2023-02-15T18:31:36.876Z,33
2023-02-15T18:37:42.912Z,32.9
2023-02-15T18:43:48.483Z,33.1
2023-02-15T18:49:54.064Z,32.9
2023-02-15T18:56:00.458Z,32.9
2023-02-15T19:02:06.652Z,32.8
2023-02-15T19:08:12.403Z,32.7
2023-02-15T19:14:18.997Z,32.6
2023-02-15T19:20:25.399Z,32.7
2023-02-15T19:26:47.629Z,32.6
2023-02-15T19:32:53.549Z,32.5
2023-02-15T19:38:59.548Z,32.5
2023-02-15T19:45:05.908Z,32.5
2023-02-15T19:51:11.907Z,32.4
2023-02-15T19:57:18.070Z,32.4
2023-02-15T20:03:23.863Z,32.3
2023-02-15T20:09:30.056Z,32.3
2023-02-15T20:15:36.657Z,32.2
2023-02-15T20:21:42.837Z,32.1
2023-02-15T20:27:48.596Z,32.1
2023-02-15T20:33:54.788Z,32
2023-02-15T20:40:00.564Z,32
2023-02-15T20:46:07.890Z,31.9
2023-02-15T20:52:14.026Z,31.9
2023-02-15T20:58:19.743Z,31.8
2023-02-15T21:04:25.931Z,31.8
2023-02-15T21:10:31.483Z,31.8
2023-02-15T21:16:37.272Z,31.7
2023-02-15T21:22:43.664Z,31.7
2023-02-15T21:28:49.642Z,31.7
2023-02-15T21:34:56.037Z,31.6
2023-02-15T21:41:02.296Z,31.5
2023-02-15T21:47:08.475Z,31.5
2023-02-15T21:53:14.601Z,31.5
2023-02-15T21:59:20.357Z,31.5
2023-02-15T22:05:26.247Z,31.4
2023-02-15T22:11:31.583Z,31.4
2023-02-15T22:17:37.223Z,31.4
2023-02-15T22:23:43.474Z,31.3
2023-02-15T22:29:49.539Z,31.3
2023-02-15T22:35:55.631Z,31.3
2023-02-15T22:42:01.830Z,31.2
2023-02-15T22:48:07.922Z,31.3
2023-02-15T22:54:13.996Z,31.2
2023-02-15T23:00:19.539Z,31.3
2023-02-15T23:06:25.948Z,31.2
2023-02-15T23:12:31.947Z,31.1
2023-02-15T23:18:37.921Z,31.1
2023-02-15T23:24:43.938Z,31.1
2023-02-15T23:30:50.501Z,31.1
2023-02-15T23:36:56.892Z,31
2023-02-15T23:43:02.478Z,31
2023-02-15T23:49:08.862Z,31
2023-02-15T23:55:15.029Z,31
